sensor_id;sensor_type;location;lat;lon;timestamp;temperature;humidity
18930;DHT22;43305;52.186;5.598;2023-02-01T00:00:06;4.60;99.90
18930;DHT22;43305;52.186;5.598;2023-02-01T00:02:33;4.60;99.90
18930;DHT22;43305;52.186;5.598;2023-02-01T00:05:01;4.60;99.90
18930;DHT22;43305;52.186;5.598;2023-02-01T00:07:28;4.60;99.90
18930;DHT22;43305;52.186;5.598;2023-02-01T00:09:55;4.70;99.90
18930;DHT22;43305;52.186;5.598;2023-02-01T00:12:23;4.70;99.90
18930;DHT22;43305;52.186;5.598;2023-02-01T00:14:50;4.70;99.90
18930;DHT22;43305;52.186;5.598;2023-02-01T00:17:17;4.70;99.90
18930;DHT22;43305;52.186;5.598;2023-02-01T00:19:44;4.70;99.90
18930;DHT22;43305;52.186;5.598;2023-02-01T00:22:11;4.80;99.90
18930;DHT22;43305;52.186;5.598;2023-02-01T00:24:38;4.80;99.90
18930;DHT22;43305;52.186;5.598;2023-02-01T00:27:04;4.80;99.90
18930;DHT22;43305;52.186;5.598;2023-02-01T00:29:33;4.90;99.90
18930;DHT22;43305;52.186;5.598;2023-02-01T00:32:00;4.90;99.90
18930;DHT22;43305;52.186;5.598;2023-02-01T00:34:27;5.00;99.90
18930;DHT22;43305;52.186;5.598;2023-02-01T00:36:54;5.00;99.90
18930;DHT22;43305;52.186;5.598;2023-02-01T00:39:21;5.10;99.90
18930;DHT22;43305;52.186;5.598;2023-02-01T00:41:47;5.10;99.90
18930;DHT22;43305;52.186;5.598;2023-02-01T00:44:14;5.10;99.90
18930;DHT22;43305;52.186;5.598;2023-02-01T00:46:43;5.20;99.90
18930;DHT22;43305;52.186;5.598;2023-02-01T00:49:09;5.20;99.90
18930;DHT22;43305;52.186;5.598;2023-02-01T00:51:36;5.30;99.90
18930;DHT22;43305;52.186;5.598;2023-02-01T00:54:03;5.30;99.90
18930;DHT22;43305;52.186;5.598;2023-02-01T00:56:30;5.40;99.90
18930;DHT22;43305;52.186;5.598;2023-02-01T00:58:57;5.50;99.90
18930;DHT22;43305;52.186;5.598;2023-02-01T01:01:26;5.50;99.90
18930;DHT22;43305;52.186;5.598;2023-02-01T01:03:56;5.60;99.90
18930;DHT22;43305;52.186;5.598;2023-02-01T01:06:26;5.60;99.90
18930;DHT22;43305;52.186;5.598;2023-02-01T01:08:54;5.60;99.90
18930;DHT22;43305;52.186;5.598;2023-02-01T01:11:23;5.60;99.90
18930;DHT22;43305;52.186;5.598;2023-02-01T01:13:51;5.70;99.90
18930;DHT22;43305;52.186;5.598;2023-02-01T01:16:20;5.80;99.90
18930;DHT22;43305;52.186;5.598;2023-02-01T01:18:47;5.70;99.90
18930;DHT22;43305;52.186;5.598;2023-02-01T01:21:16;5.70;99.90
18930;DHT22;43305;52.186;5.598;2023-02-01T01:23:44;5.80;99.90
18930;DHT22;43305;52.186;5.598;2023-02-01T01:26:14;5.80;99.90
18930;DHT22;43305;52.186;5.598;2023-02-01T01:28:44;5.90;99.90
18930;DHT22;43305;52.186;5.598;2023-02-01T01:31:13;5.90;99.90
18930;DHT22;43305;52.186;5.598;2023-02-01T01:33:40;5.90;99.90
18930;DHT22;43305;52.186;5.598;2023-02-01T01:36:10;5.90;99.90
18930;DHT22;43305;52.186;5.598;2023-02-01T01:38:39;5.90;99.90
18930;DHT22;43305;52.186;5.598;2023-02-01T01:41:07;6.00;99.90
18930;DHT22;43305;52.186;5.598;2023-02-01T01:43:49;6.00;99.90
18930;DHT22;43305;52.186;5.598;2023-02-01T01:46:18;6.00;99.90
18930;DHT22;43305;52.186;5.598;2023-02-01T01:48:46;6.10;99.90
18930;DHT22;43305;52.186;5.598;2023-02-01T01:51:17;6.10;99.90
18930;DHT22;43305;52.186;5.598;2023-02-01T01:53:52;6.10;99.90
18930;DHT22;43305;52.186;5.598;2023-02-01T01:56:20;6.20;99.90
18930;DHT22;43305;52.186;5.598;2023-02-01T01:58:47;6.20;99.90
18930;DHT22;43305;52.186;5.598;2023-02-01T02:01:15;6.30;99.90
18930;DHT22;43305;52.186;5.598;2023-02-01T02:03:43;6.30;99.90
18930;DHT22;43305;52.186;5.598;2023-02-01T02:06:15;6.40;99.90
18930;DHT22;43305;52.186;5.598;2023-02-01T02:08:43;6.30;99.90
18930;DHT22;43305;52.186;5.598;2023-02-01T02:11:16;6.30;99.90
18930;DHT22;43305;52.186;5.598;2023-02-01T02:13:46;6.40;99.90
18930;DHT22;43305;52.186;5.598;2023-02-01T02:16:29;6.40;99.90
18930;DHT22;43305;52.186;5.598;2023-02-01T02:19:22;6.40;99.90
18930;DHT22;43305;52.186;5.598;2023-02-01T02:22:06;6.50;99.90
18930;DHT22;43305;52.186;5.598;2023-02-01T02:24:57;6.50;99.90
18930;DHT22;43305;52.186;5.598;2023-02-01T02:27:38;6.50;99.90
18930;DHT22;43305;52.186;5.598;2023-02-01T02:30:37;6.50;99.90
18930;DHT22;43305;52.186;5.598;2023-02-01T02:33:44;6.60;99.90
18930;DHT22;43305;52.186;5.598;2023-02-01T02:36:19;6.60;99.90
18930;DHT22;43305;52.186;5.598;2023-02-01T02:38:54;6.60;99.90
18930;DHT22;43305;52.186;5.598;2023-02-01T02:41:29;6.60;99.90
18930;DHT22;43305;52.186;5.598;2023-02-01T02:44:25;6.70;99.90
18930;DHT22;43305;52.186;5.598;2023-02-01T02:47:16;6.70;99.90
18930;DHT22;43305;52.186;5.598;2023-02-01T02:50:04;6.70;99.90
18930;DHT22;43305;52.186;5.598;2023-02-01T02:52:54;6.60;99.90
18930;DHT22;43305;52.186;5.598;2023-02-01T02:55:41;6.70;99.90
18930;DHT22;43305;52.186;5.598;2023-02-01T02:58:11;6.70;99.90
18930;DHT22;43305;52.186;5.598;2023-02-01T03:00:57;6.70;99.90
18930;DHT22;43305;52.186;5.598;2023-02-01T03:03:42;6.70;99.90
18930;DHT22;43305;52.186;5.598;2023-02-01T03:06:37;6.70;99.90
18930;DHT22;43305;52.186;5.598;2023-02-01T03:09:10;6.70;99.90
18930;DHT22;43305;52.186;5.598;2023-02-01T03:11:39;6.70;99.90
18930;DHT22;43305;52.186;5.598;2023-02-01T03:14:29;6.60;99.90
18930;DHT22;43305;52.186;5.598;2023-02-01T03:17:01;6.70;99.90
18930;DHT22;43305;52.186;5.598;2023-02-01T03:19:34;6.60;99.90
18930;DHT22;43305;52.186;5.598;2023-02-01T03:22:05;6.60;99.90
18930;DHT22;43305;52.186;5.598;2023-02-01T03:24:37;6.60;99.90
18930;DHT22;43305;52.186;5.598;2023-02-01T03:27:12;6.60;99.90
18930;DHT22;43305;52.186;5.598;2023-02-01T03:29:46;6.50;99.90
18930;DHT22;43305;52.186;5.598;2023-02-01T03:32:15;6.50;99.90
18930;DHT22;43305;52.186;5.598;2023-02-01T03:34:43;6.60;99.90
18930;DHT22;43305;52.186;5.598;2023-02-01T03:37:15;6.50;99.90
18930;DHT22;43305;52.186;5.598;2023-02-01T03:39:46;6.50;99.90
18930;DHT22;43305;52.186;5.598;2023-02-01T03:42:16;6.40;99.90
18930;DHT22;43305;52.186;5.598;2023-02-01T03:44:49;6.50;99.90
18930;DHT22;43305;52.186;5.598;2023-02-01T03:47:19;6.50;99.90
18930;DHT22;43305;52.186;5.598;2023-02-01T03:49:49;6.40;99.90
18930;DHT22;43305;52.186;5.598;2023-02-01T03:52:22;6.40;99.90
18930;DHT22;43305;52.186;5.598;2023-02-01T03:54:50;6.40;99.90
18930;DHT22;43305;52.186;5.598;2023-02-01T03:57:23;6.50;99.90
18930;DHT22;43305;52.186;5.598;2023-02-01T03:59:50;6.40;99.90
18930;DHT22;43305;52.186;5.598;2023-02-01T04:02:17;6.40;99.90
18930;DHT22;43305;52.186;5.598;2023-02-01T04:04:44;6.40;99.90
18930;DHT22;43305;52.186;5.598;2023-02-01T04:07:11;6.40;99.90
18930;DHT22;43305;52.186;5.598;2023-02-01T04:09:40;6.30;99.90
18930;DHT22;43305;52.186;5.598;2023-02-01T04:12:07;6.40;99.90
18930;DHT22;43305;52.186;5.598;2023-02-01T04:14:34;6.40;99.90
18930;DHT22;43305;52.186;5.598;2023-02-01T04:17:01;6.40;99.90
18930;DHT22;43305;52.186;5.598;2023-02-01T04:19:28;6.50;99.90
18930;DHT22;43305;52.186;5.598;2023-02-01T04:21:55;6.50;99.90
18930;DHT22;43305;52.186;5.598;2023-02-01T04:24:22;6.50;99.90
18930;DHT22;43305;52.186;5.598;2023-02-01T04:26:50;6.60;99.90
18930;DHT22;43305;52.186;5.598;2023-02-01T04:29:17;6.70;99.90
18930;DHT22;43305;52.186;5.598;2023-02-01T04:31:44;6.70;99.90
18930;DHT22;43305;52.186;5.598;2023-02-01T04:34:12;6.70;99.90
18930;DHT22;43305;52.186;5.598;2023-02-01T04:36:38;6.70;99.90
18930;DHT22;43305;52.186;5.598;2023-02-01T04:39:05;6.70;99.90
18930;DHT22;43305;52.186;5.598;2023-02-01T04:41:32;6.70;99.90
18930;DHT22;43305;52.186;5.598;2023-02-01T04:44:00;6.60;99.90
18930;DHT22;43305;52.186;5.598;2023-02-01T04:46:27;6.60;99.90
18930;DHT22;43305;52.186;5.598;2023-02-01T04:48:54;6.50;99.90
18930;DHT22;43305;52.186;5.598;2023-02-01T04:51:21;6.50;99.90
18930;DHT22;43305;52.186;5.598;2023-02-01T04:53:48;6.60;99.90
18930;DHT22;43305;52.186;5.598;2023-02-01T04:56:15;6.60;99.90
18930;DHT22;43305;52.186;5.598;2023-02-01T04:58:42;6.60;99.90
18930;DHT22;43305;52.186;5.598;2023-02-01T05:01:10;6.60;99.90
18930;DHT22;43305;52.186;5.598;2023-02-01T05:03:37;6.60;99.90
18930;DHT22;43305;52.186;5.598;2023-02-01T05:06:04;6.60;99.90
18930;DHT22;43305;52.186;5.598;2023-02-01T05:08:32;6.60;99.90
18930;DHT22;43305;52.186;5.598;2023-02-01T05:10:59;6.60;99.90
18930;DHT22;43305;52.186;5.598;2023-02-01T05:13:28;6.60;99.90
18930;DHT22;43305;52.186;5.598;2023-02-01T05:16:13;6.60;99.90
18930;DHT22;43305;52.186;5.598;2023-02-01T05:18:40;6.70;99.90
18930;DHT22;43305;52.186;5.598;2023-02-01T05:21:10;6.60;99.90
18930;DHT22;43305;52.186;5.598;2023-02-01T05:23:37;6.60;99.90
18930;DHT22;43305;52.186;5.598;2023-02-01T05:26:23;6.60;99.90
18930;DHT22;43305;52.186;5.598;2023-02-01T05:28:50;6.60;99.90
18930;DHT22;43305;52.186;5.598;2023-02-01T05:31:19;6.60;99.90
18930;DHT22;43305;52.186;5.598;2023-02-01T05:33:45;6.60;99.90
18930;DHT22;43305;52.186;5.598;2023-02-01T05:36:13;6.60;99.90
18930;DHT22;43305;52.186;5.598;2023-02-01T05:38:39;6.60;99.90
18930;DHT22;43305;52.186;5.598;2023-02-01T05:41:07;6.60;99.90
18930;DHT22;43305;52.186;5.598;2023-02-01T05:43:34;6.60;99.90
18930;DHT22;43305;52.186;5.598;2023-02-01T05:46:01;6.60;99.90
18930;DHT22;43305;52.186;5.598;2023-02-01T05:48:29;6.50;99.90
18930;DHT22;43305;52.186;5.598;2023-02-01T05:50:56;6.50;99.90
18930;DHT22;43305;52.186;5.598;2023-02-01T05:53:23;6.60;99.90
18930;DHT22;43305;52.186;5.598;2023-02-01T05:55:49;6.60;99.90
18930;DHT22;43305;52.186;5.598;2023-02-01T05:58:16;6.60;99.90
18930;DHT22;43305;52.186;5.598;2023-02-01T06:00:43;6.60;99.90
18930;DHT22;43305;52.186;5.598;2023-02-01T06:03:10;6.60;99.90
18930;DHT22;43305;52.186;5.598;2023-02-01T06:05:38;6.60;99.90
18930;DHT22;43305;52.186;5.598;2023-02-01T06:08:05;6.60;99.90
18930;DHT22;43305;52.186;5.598;2023-02-01T06:10:34;6.60;99.90
18930;DHT22;43305;52.186;5.598;2023-02-01T06:13:01;6.50;99.90
18930;DHT22;43305;52.186;5.598;2023-02-01T06:15:29;6.60;99.90
18930;DHT22;43305;52.186;5.598;2023-02-01T06:17:56;6.60;99.90
18930;DHT22;43305;52.186;5.598;2023-02-01T06:20:24;6.60;99.90
18930;DHT22;43305;52.186;5.598;2023-02-01T06:22:52;6.60;99.90
18930;DHT22;43305;52.186;5.598;2023-02-01T06:25:19;6.60;99.90
18930;DHT22;43305;52.186;5.598;2023-02-01T06:27:46;6.60;99.90
18930;DHT22;43305;52.186;5.598;2023-02-01T06:30:14;6.50;99.90
18930;DHT22;43305;52.186;5.598;2023-02-01T06:32:41;6.50;99.90
18930;DHT22;43305;52.186;5.598;2023-02-01T06:35:08;6.50;99.90
18930;DHT22;43305;52.186;5.598;2023-02-01T06:37:36;6.50;99.90
18930;DHT22;43305;52.186;5.598;2023-02-01T06:40:08;6.50;99.90
18930;DHT22;43305;52.186;5.598;2023-02-01T06:42:35;6.60;99.90
18930;DHT22;43305;52.186;5.598;2023-02-01T06:45:02;6.50;99.90
18930;DHT22;43305;52.186;5.598;2023-02-01T06:47:29;6.40;99.90
18930;DHT22;43305;52.186;5.598;2023-02-01T06:49:56;6.40;99.90
18930;DHT22;43305;52.186;5.598;2023-02-01T06:52:23;6.40;99.90
18930;DHT22;43305;52.186;5.598;2023-02-01T06:54:50;6.40;99.90
18930;DHT22;43305;52.186;5.598;2023-02-01T06:57:18;6.40;99.90
18930;DHT22;43305;52.186;5.598;2023-02-01T06:59:45;6.30;99.90
18930;DHT22;43305;52.186;5.598;2023-02-01T07:02:12;6.30;99.90
18930;DHT22;43305;52.186;5.598;2023-02-01T07:04:39;6.30;99.90
18930;DHT22;43305;52.186;5.598;2023-02-01T07:07:06;6.20;99.90
18930;DHT22;43305;52.186;5.598;2023-02-01T07:09:33;6.20;99.90
18930;DHT22;43305;52.186;5.598;2023-02-01T07:12:00;6.20;99.90
18930;DHT22;43305;52.186;5.598;2023-02-01T07:14:28;6.20;99.90
18930;DHT22;43305;52.186;5.598;2023-02-01T07:16:55;6.20;99.90
18930;DHT22;43305;52.186;5.598;2023-02-01T07:19:21;6.10;99.90
18930;DHT22;43305;52.186;5.598;2023-02-01T07:21:48;6.20;99.90
18930;DHT22;43305;52.186;5.598;2023-02-01T07:24:15;6.20;99.90
18930;DHT22;43305;52.186;5.598;2023-02-01T07:26:42;6.20;99.90
18930;DHT22;43305;52.186;5.598;2023-02-01T07:29:09;6.20;99.90
18930;DHT22;43305;52.186;5.598;2023-02-01T07:31:37;6.20;99.90
18930;DHT22;43305;52.186;5.598;2023-02-01T07:34:04;6.20;99.90
18930;DHT22;43305;52.186;5.598;2023-02-01T07:36:31;6.30;99.90
18930;DHT22;43305;52.186;5.598;2023-02-01T07:38:58;6.20;99.90
18930;DHT22;43305;52.186;5.598;2023-02-01T07:41:25;6.20;99.90
18930;DHT22;43305;52.186;5.598;2023-02-01T07:43:52;6.20;99.90
18930;DHT22;43305;52.186;5.598;2023-02-01T07:46:19;6.20;99.90
18930;DHT22;43305;52.186;5.598;2023-02-01T07:48:47;6.20;99.90
18930;DHT22;43305;52.186;5.598;2023-02-01T07:51:16;6.20;99.90
18930;DHT22;43305;52.186;5.598;2023-02-01T07:53:44;6.20;99.90
18930;DHT22;43305;52.186;5.598;2023-02-01T07:56:13;6.20;99.90
18930;DHT22;43305;52.186;5.598;2023-02-01T07:58:40;6.30;99.90
18930;DHT22;43305;52.186;5.598;2023-02-01T08:01:13;6.30;99.90
18930;DHT22;43305;52.186;5.598;2023-02-01T08:03:47;6.40;99.90
18930;DHT22;43305;52.186;5.598;2023-02-01T08:06:14;6.40;99.90
18930;DHT22;43305;52.186;5.598;2023-02-01T08:08:41;6.40;99.90
18930;DHT22;43305;52.186;5.598;2023-02-01T08:11:10;6.40;99.90
18930;DHT22;43305;52.186;5.598;2023-02-01T08:13:40;6.40;99.90
18930;DHT22;43305;52.186;5.598;2023-02-01T08:16:09;6.40;99.90
18930;DHT22;43305;52.186;5.598;2023-02-01T08:18:37;6.40;99.90
18930;DHT22;43305;52.186;5.598;2023-02-01T08:21:07;6.40;99.90
18930;DHT22;43305;52.186;5.598;2023-02-01T08:23:35;6.50;99.90
18930;DHT22;43305;52.186;5.598;2023-02-01T08:26:10;6.50;99.90
18930;DHT22;43305;52.186;5.598;2023-02-01T08:28:38;6.60;99.90
18930;DHT22;43305;52.186;5.598;2023-02-01T08:31:11;6.60;99.90
18930;DHT22;43305;52.186;5.598;2023-02-01T08:33:40;6.70;99.90
18930;DHT22;43305;52.186;5.598;2023-02-01T08:36:10;6.70;99.90
18930;DHT22;43305;52.186;5.598;2023-02-01T08:38:38;6.70;99.90
18930;DHT22;43305;52.186;5.598;2023-02-01T08:41:06;6.80;99.90
18930;DHT22;43305;52.186;5.598;2023-02-01T08:43:33;6.80;99.90
18930;DHT22;43305;52.186;5.598;2023-02-01T08:46:00;6.80;99.90
18930;DHT22;43305;52.186;5.598;2023-02-01T08:48:30;6.80;99.90
18930;DHT22;43305;52.186;5.598;2023-02-01T08:50:57;6.90;99.90
18930;DHT22;43305;52.186;5.598;2023-02-01T08:53:26;6.90;99.90
18930;DHT22;43305;52.186;5.598;2023-02-01T08:55:52;6.90;99.90
18930;DHT22;43305;52.186;5.598;2023-02-01T08:58:19;6.90;99.90
18930;DHT22;43305;52.186;5.598;2023-02-01T09:00:47;6.90;99.90
18930;DHT22;43305;52.186;5.598;2023-02-01T09:03:15;7.00;99.90
18930;DHT22;43305;52.186;5.598;2023-02-01T09:05:42;7.00;99.90
18930;DHT22;43305;52.186;5.598;2023-02-01T09:08:10;7.10;99.90
18930;DHT22;43305;52.186;5.598;2023-02-01T09:10:44;7.20;99.90
18930;DHT22;43305;52.186;5.598;2023-02-01T09:13:11;7.30;99.90
18930;DHT22;43305;52.186;5.598;2023-02-01T09:15:38;7.30;99.90
18930;DHT22;43305;52.186;5.598;2023-02-01T09:18:05;7.50;99.90
18930;DHT22;43305;52.186;5.598;2023-02-01T09:20:32;7.70;99.90
18930;DHT22;43305;52.186;5.598;2023-02-01T09:22:59;7.80;99.90
18930;DHT22;43305;52.186;5.598;2023-02-01T09:25:26;7.90;99.90
18930;DHT22;43305;52.186;5.598;2023-02-01T09:27:55;7.80;99.90
18930;DHT22;43305;52.186;5.598;2023-02-01T09:30:22;7.80;99.90
18930;DHT22;43305;52.186;5.598;2023-02-01T09:32:48;7.80;99.90
18930;DHT22;43305;52.186;5.598;2023-02-01T09:35:15;7.70;99.90
18930;DHT22;43305;52.186;5.598;2023-02-01T09:37:42;7.70;99.90
18930;DHT22;43305;52.186;5.598;2023-02-01T09:40:14;7.60;99.90
18930;DHT22;43305;52.186;5.598;2023-02-01T09:43:05;7.60;99.90
18930;DHT22;43305;52.186;5.598;2023-02-01T09:45:40;7.60;99.90
18930;DHT22;43305;52.186;5.598;2023-02-01T09:48:15;7.60;99.90
18930;DHT22;43305;52.186;5.598;2023-02-01T09:50:47;7.50;99.90
18930;DHT22;43305;52.186;5.598;2023-02-01T09:53:18;7.60;99.90
18930;DHT22;43305;52.186;5.598;2023-02-01T09:55:49;7.60;99.90
18930;DHT22;43305;52.186;5.598;2023-02-01T09:58:21;7.50;99.90
18930;DHT22;43305;52.186;5.598;2023-02-01T10:00:52;7.50;99.90
18930;DHT22;43305;52.186;5.598;2023-02-01T10:03:20;7.50;99.90
18930;DHT22;43305;52.186;5.598;2023-02-01T10:05:58;7.50;99.90
18930;DHT22;43305;52.186;5.598;2023-02-01T10:08:36;7.40;99.90
18930;DHT22;43305;52.186;5.598;2023-02-01T10:11:23;7.50;99.90
18930;DHT22;43305;52.186;5.598;2023-02-01T10:13:59;7.40;99.90
18930;DHT22;43305;52.186;5.598;2023-02-01T10:16:39;7.40;99.90
18930;DHT22;43305;52.186;5.598;2023-02-01T10:19:28;7.40;99.90
18930;DHT22;43305;52.186;5.598;2023-02-01T10:22:03;7.40;99.90
18930;DHT22;43305;52.186;5.598;2023-02-01T10:24:40;7.30;99.90
18930;DHT22;43305;52.186;5.598;2023-02-01T10:27:13;7.20;99.90
18930;DHT22;43305;52.186;5.598;2023-02-01T10:29:43;7.20;99.90
18930;DHT22;43305;52.186;5.598;2023-02-01T10:32:13;7.10;99.90
18930;DHT22;43305;52.186;5.598;2023-02-01T10:34:42;7.00;99.90
18930;DHT22;43305;52.186;5.598;2023-02-01T10:37:22;7.00;99.90
18930;DHT22;43305;52.186;5.598;2023-02-01T10:39:53;6.90;99.90
18930;DHT22;43305;52.186;5.598;2023-02-01T10:42:24;6.80;99.90
18930;DHT22;43305;52.186;5.598;2023-02-01T10:44:54;6.80;99.90
18930;DHT22;43305;52.186;5.598;2023-02-01T10:47:22;6.80;99.90
18930;DHT22;43305;52.186;5.598;2023-02-01T10:49:55;6.80;99.90
18930;DHT22;43305;52.186;5.598;2023-02-01T10:52:39;6.80;99.90
18930;DHT22;43305;52.186;5.598;2023-02-01T10:55:28;6.80;99.90
18930;DHT22;43305;52.186;5.598;2023-02-01T10:57:56;6.90;99.90
18930;DHT22;43305;52.186;5.598;2023-02-01T11:00:26;6.90;99.90
18930;DHT22;43305;52.186;5.598;2023-02-01T11:02:53;7.00;99.90
18930;DHT22;43305;52.186;5.598;2023-02-01T11:05:22;7.00;99.90
18930;DHT22;43305;52.186;5.598;2023-02-01T11:07:51;7.00;99.90
18930;DHT22;43305;52.186;5.598;2023-02-01T11:10:37;7.10;99.90
18930;DHT22;43305;52.186;5.598;2023-02-01T11:13:13;7.20;99.90
18930;DHT22;43305;52.186;5.598;2023-02-01T11:15:45;7.20;99.90
18930;DHT22;43305;52.186;5.598;2023-02-01T11:18:17;7.10;99.90
18930;DHT22;43305;52.186;5.598;2023-02-01T11:20:45;7.20;99.90
18930;DHT22;43305;52.186;5.598;2023-02-01T11:23:16;7.20;99.90
18930;DHT22;43305;52.186;5.598;2023-02-01T11:25:49;7.20;99.90
18930;DHT22;43305;52.186;5.598;2023-02-01T11:28:16;7.20;99.90
18930;DHT22;43305;52.186;5.598;2023-02-01T11:30:47;7.20;99.90
18930;DHT22;43305;52.186;5.598;2023-02-01T11:33:17;7.30;99.90
18930;DHT22;43305;52.186;5.598;2023-02-01T11:35:46;7.30;99.90
18930;DHT22;43305;52.186;5.598;2023-02-01T11:38:23;7.30;99.90
18930;DHT22;43305;52.186;5.598;2023-02-01T11:40:51;7.30;99.90
18930;DHT22;43305;52.186;5.598;2023-02-01T11:43:23;7.30;99.90
18930;DHT22;43305;52.186;5.598;2023-02-01T11:45:59;7.40;99.90
18930;DHT22;43305;52.186;5.598;2023-02-01T11:48:27;7.40;99.90
18930;DHT22;43305;52.186;5.598;2023-02-01T11:51:04;7.50;99.90
18930;DHT22;43305;52.186;5.598;2023-02-01T11:53:46;7.50;99.90
18930;DHT22;43305;52.186;5.598;2023-02-01T11:56:25;7.60;99.90
18930;DHT22;43305;52.186;5.598;2023-02-01T11:59:04;7.60;99.90
18930;DHT22;43305;52.186;5.598;2023-02-01T12:04:52;7.50;99.90
18930;DHT22;43305;52.186;5.598;2023-02-01T12:07:22;7.50;99.90
18930;DHT22;43305;52.186;5.598;2023-02-01T12:10:01;7.50;99.90
18930;DHT22;43305;52.186;5.598;2023-02-01T12:12:40;7.50;99.90
18930;DHT22;43305;52.186;5.598;2023-02-01T12:15:22;7.60;99.90
18930;DHT22;43305;52.186;5.598;2023-02-01T12:18:14;7.60;99.90
18930;DHT22;43305;52.186;5.598;2023-02-01T12:21:04;7.70;99.90
18930;DHT22;43305;52.186;5.598;2023-02-01T12:23:51;7.70;99.90
18930;DHT22;43305;52.186;5.598;2023-02-01T12:26:45;7.80;99.90
18930;DHT22;43305;52.186;5.598;2023-02-01T12:32:31;7.80;99.90
18930;DHT22;43305;52.186;5.598;2023-02-01T12:35:19;7.80;99.90
18930;DHT22;43305;52.186;5.598;2023-02-01T12:37:57;7.80;99.90
18930;DHT22;43305;52.186;5.598;2023-02-01T12:40:38;7.80;99.90
18930;DHT22;43305;52.186;5.598;2023-02-01T12:43:11;7.80;99.90
18930;DHT22;43305;52.186;5.598;2023-02-01T12:45:44;7.80;99.90
18930;DHT22;43305;52.186;5.598;2023-02-01T12:48:25;7.80;99.90
18930;DHT22;43305;52.186;5.598;2023-02-01T12:50:56;7.70;99.90
18930;DHT22;43305;52.186;5.598;2023-02-01T12:53:27;7.70;99.90
18930;DHT22;43305;52.186;5.598;2023-02-01T12:56:00;7.80;99.90
18930;DHT22;43305;52.186;5.598;2023-02-01T12:58:34;7.80;99.90
18930;DHT22;43305;52.186;5.598;2023-02-01T13:01:03;7.80;99.90
18930;DHT22;43305;52.186;5.598;2023-02-01T13:03:37;7.80;99.90
18930;DHT22;43305;52.186;5.598;2023-02-01T13:06:10;7.90;99.90
18930;DHT22;43305;52.186;5.598;2023-02-01T13:08:44;7.90;99.90
18930;DHT22;43305;52.186;5.598;2023-02-01T13:11:16;7.80;99.90
18930;DHT22;43305;52.186;5.598;2023-02-01T13:13:52;7.90;99.90
18930;DHT22;43305;52.186;5.598;2023-02-01T13:16:26;7.90;99.90
18930;DHT22;43305;52.186;5.598;2023-02-01T13:19:02;7.90;99.90
18930;DHT22;43305;52.186;5.598;2023-02-01T13:21:35;7.90;99.90
18930;DHT22;43305;52.186;5.598;2023-02-01T13:24:04;7.90;99.90
18930;DHT22;43305;52.186;5.598;2023-02-01T13:26:30;7.90;99.90
18930;DHT22;43305;52.186;5.598;2023-02-01T13:29:00;7.90;99.90
18930;DHT22;43305;52.186;5.598;2023-02-01T13:37:44;7.80;99.90
18930;DHT22;43305;52.186;5.598;2023-02-01T13:40:28;7.80;99.90
18930;DHT22;43305;52.186;5.598;2023-02-01T13:43:00;7.90;99.90
18930;DHT22;43305;52.186;5.598;2023-02-01T13:45:31;7.90;99.90
18930;DHT22;43305;52.186;5.598;2023-02-01T13:48:01;7.90;99.90
18930;DHT22;43305;52.186;5.598;2023-02-01T13:50:31;8.00;99.90
18930;DHT22;43305;52.186;5.598;2023-02-01T13:53:16;7.90;99.90
18930;DHT22;43305;52.186;5.598;2023-02-01T13:55:45;8.00;99.90
18930;DHT22;43305;52.186;5.598;2023-02-01T13:58:18;8.00;99.90
18930;DHT22;43305;52.186;5.598;2023-02-01T14:00:47;8.00;99.90
18930;DHT22;43305;52.186;5.598;2023-02-01T14:03:16;8.00;99.90
18930;DHT22;43305;52.186;5.598;2023-02-01T14:06:01;8.00;99.90
18930;DHT22;43305;52.186;5.598;2023-02-01T14:08:42;8.00;99.90
18930;DHT22;43305;52.186;5.598;2023-02-01T14:11:31;8.00;99.90
18930;DHT22;43305;52.186;5.598;2023-02-01T14:17:39;8.10;99.90
18930;DHT22;43305;52.186;5.598;2023-02-01T14:23:28;8.10;99.90
18930;DHT22;43305;52.186;5.598;2023-02-01T14:26:13;8.10;99.90
18930;DHT22;43305;52.186;5.598;2023-02-01T14:28:45;8.10;99.90
18930;DHT22;43305;52.186;5.598;2023-02-01T14:31:25;8.10;99.90
18930;DHT22;43305;52.186;5.598;2023-02-01T14:33:57;8.10;99.90
18930;DHT22;43305;52.186;5.598;2023-02-01T14:36:25;8.10;99.90
18930;DHT22;43305;52.186;5.598;2023-02-01T14:38:53;8.10;99.90
18930;DHT22;43305;52.186;5.598;2023-02-01T14:41:29;8.10;99.90
18930;DHT22;43305;52.186;5.598;2023-02-01T14:44:26;8.10;99.90
18930;DHT22;43305;52.186;5.598;2023-02-01T14:47:25;8.10;99.90
18930;DHT22;43305;52.186;5.598;2023-02-01T14:49:56;8.10;99.90
18930;DHT22;43305;52.186;5.598;2023-02-01T14:52:29;8.10;99.90
18930;DHT22;43305;52.186;5.598;2023-02-01T14:55:04;8.10;99.90
18930;DHT22;43305;52.186;5.598;2023-02-01T14:57:35;8.10;99.90
18930;DHT22;43305;52.186;5.598;2023-02-01T15:00:21;8.10;99.90
18930;DHT22;43305;52.186;5.598;2023-02-01T15:02:49;8.00;99.90
18930;DHT22;43305;52.186;5.598;2023-02-01T15:05:24;7.90;99.90
18930;DHT22;43305;52.186;5.598;2023-02-01T15:07:52;7.80;99.90
18930;DHT22;43305;52.186;5.598;2023-02-01T15:10:20;7.60;99.90
18930;DHT22;43305;52.186;5.598;2023-02-01T15:12:49;7.30;99.90
18930;DHT22;43305;52.186;5.598;2023-02-01T15:15:18;7.00;99.90
18930;DHT22;43305;52.186;5.598;2023-02-01T15:17:53;6.90;99.90
18930;DHT22;43305;52.186;5.598;2023-02-01T15:20:23;6.80;99.90
18930;DHT22;43305;52.186;5.598;2023-02-01T15:22:55;6.70;99.90
18930;DHT22;43305;52.186;5.598;2023-02-01T15:25:24;6.60;99.90
18930;DHT22;43305;52.186;5.598;2023-02-01T15:27:52;6.60;99.90
18930;DHT22;43305;52.186;5.598;2023-02-01T15:30:22;6.50;99.90
18930;DHT22;43305;52.186;5.598;2023-02-01T15:32:50;6.40;99.90
18930;DHT22;43305;52.186;5.598;2023-02-01T15:35:38;6.40;99.90
18930;DHT22;43305;52.186;5.598;2023-02-01T15:38:33;6.30;99.90
18930;DHT22;43305;52.186;5.598;2023-02-01T15:41:03;6.30;99.90
18930;DHT22;43305;52.186;5.598;2023-02-01T15:43:34;6.30;99.90
18930;DHT22;43305;52.186;5.598;2023-02-01T15:46:07;6.40;99.90
18930;DHT22;43305;52.186;5.598;2023-02-01T15:48:38;6.40;99.90
18930;DHT22;43305;52.186;5.598;2023-02-01T15:51:05;6.40;99.90
18930;DHT22;43305;52.186;5.598;2023-02-01T15:53:33;6.50;99.90
18930;DHT22;43305;52.186;5.598;2023-02-01T15:56:02;6.60;99.90
18930;DHT22;43305;52.186;5.598;2023-02-01T15:58:30;6.70;99.90
18930;DHT22;43305;52.186;5.598;2023-02-01T16:01:03;6.70;99.90
18930;DHT22;43305;52.186;5.598;2023-02-01T16:03:37;6.70;99.90
18930;DHT22;43305;52.186;5.598;2023-02-01T16:06:08;6.80;99.90
18930;DHT22;43305;52.186;5.598;2023-02-01T16:08:36;6.90;99.90
18930;DHT22;43305;52.186;5.598;2023-02-01T16:11:23;7.10;99.90
18930;DHT22;43305;52.186;5.598;2023-02-01T16:13:50;7.30;99.90
18930;DHT22;43305;52.186;5.598;2023-02-01T16:16:18;7.40;99.90
18930;DHT22;43305;52.186;5.598;2023-02-01T16:18:45;7.50;99.90
18930;DHT22;43305;52.186;5.598;2023-02-01T16:21:15;7.50;99.90
18930;DHT22;43305;52.186;5.598;2023-02-01T16:23:48;7.50;99.90
18930;DHT22;43305;52.186;5.598;2023-02-01T16:26:16;7.50;99.90
18930;DHT22;43305;52.186;5.598;2023-02-01T16:28:43;7.60;99.90
18930;DHT22;43305;52.186;5.598;2023-02-01T16:31:12;7.70;99.90